Time;durP1;ratioP1;P1;durP2;ratioP2;P2;SDS_P1;SDS_P2;PMS_P1;PMS_P2;Temp;Humidity;BMP_temperature;BMP_pressure;BME280_temperature;BME280_humidity;BME280_pressure;Samples;Min_cycle;Max_cycle;Signal;HPM_P1;HPM_P2
2022/07/20 00:02:06;;;;;;;;;4.00;4.00;;;;;18.80;60.88;100006.72;6290993;20;2738783;-60
2022/07/20 00:04:34;;;;;;;;;6.00;6.00;;;;;18.59;61.66;100004.09;6290198;20;2746380;-60
2022/07/20 00:07:02;;;;;;;;;4.50;4.50;;;;;18.92;60.31;100012.94;6288815;20;2738847;-59
2022/07/20 00:12:15;;;;;;;;;5.50;5.50;;;;;18.88;60.28;100006.03;6292977;20;2734657;-60
2022/07/20 00:14:45;;;;;;;;;6.40;6.00;;;;;18.74;60.95;100004.53;6313016;20;2734638;-59
2022/07/20 00:17:14;;;;;;;;;6.00;5.00;;;;;18.82;61.12;99999.28;6318747;20;2742963;-59
2022/07/20 00:19:45;;;;;;;;;6.29;6.29;;;;;18.65;61.05;99995.38;6331176;20;3456570;-59
2022/07/20 00:22:15;;;;;;;;;6.20;6.20;;;;;18.89;60.40;99989.56;6343247;20;2744090;-59
2022/07/20 00:24:42;;;;;;;;;5.00;5.00;;;;;19.02;59.54;99998.34;6319533;20;2746083;-59
2022/07/20 00:27:10;;;;;;;;;4.00;4.00;;;;;18.58;60.98;99992.31;6283182;20;2745165;-60
2022/07/20 00:29:38;;;;;;;;;4.50;4.50;;;;;18.53;60.95;99989.16;6290840;20;2738926;-59
2022/07/20 00:32:06;;;;;;;;;9.00;6.00;;;;;18.45;61.40;99991.69;6291458;20;2727355;-60
2022/07/20 00:34:35;;;;;;;;;4.80;4.80;;;;;18.68;60.39;99984.19;6312057;20;2741038;-60
2022/07/20 00:37:05;;;;;;;;;7.60;5.00;;;;;18.39;60.71;99987.69;6342058;20;2738802;-59
2022/07/20 00:39:33;;;;;;;;;5.50;5.50;;;;;18.08;61.51;99991.41;6318616;20;2738890;-60
2022/07/20 00:42:01;;;;;;;;;8.00;5.00;;;;;18.41;60.42;99993.00;6290072;20;2731511;-59
2022/07/20 00:44:29;;;;;;;;;5.00;5.00;;;;;18.26;60.72;99989.78;6289354;20;2730492;-59
2022/07/20 00:46:57;;;;;;;;;5.50;5.50;;;;;18.12;61.11;99990.16;6290204;20;2741911;-59
2022/07/20 00:49:26;;;;;;;;;6.20;6.00;;;;;18.03;61.07;99991.81;6311337;20;2746176;-60
2022/07/20 00:51:54;;;;;;;;;8.00;5.00;;;;;18.06;61.26;99991.56;6289729;20;2728412;-59
2022/07/20 00:54:22;;;;;;;;;5.50;5.00;;;;;18.16;61.70;99991.59;6287686;20;2750325;-60
2022/07/20 00:56:50;;;;;;;;;7.50;5.00;;;;;18.18;62.46;99995.88;6289196;20;2734832;-60
2022/07/20 00:59:20;;;;;;;;;5.80;5.80;;;;;18.24;61.34;99993.63;6311515;20;2735807;-59
2022/07/20 01:01:49;;;;;;;;;7.00;7.00;;;;;17.92;63.64;99997.31;6341076;20;2740944;-60
2022/07/20 01:04:18;;;;;;;;;7.00;5.00;;;;;18.12;61.72;99999.16;6320050;20;2739917;-59
2022/07/20 01:06:46;;;;;;;;;7.00;6.50;;;;;18.21;62.08;99997.47;6287667;20;2746542;-61
2022/07/20 01:09:14;;;;;;;;;7.00;6.00;;;;;18.04;63.67;99998.97;6284866;20;2731922;-64
2022/07/20 01:11:41;;;;;;;;;9.50;7.00;;;;;18.67;60.47;99993.38;6287682;20;2750249;-65
2022/07/20 01:14:10;;;;;;;;;8.50;6.00;;;;;18.06;62.40;99996.09;6289352;20;2737867;-64
2022/07/20 01:16:38;;;;;;;;;7.50;6.00;;;;;17.85;63.11;99990.69;6283616;20;2740947;-64
2022/07/20 01:19:09;;;;;;;;;6.40;5.80;;;;;18.02;62.27;99990.09;6311109;20;2731945;-66
2022/07/20 01:21:42;;;;;;;;;7.20;5.40;;;;;17.84;63.23;99988.97;6339369;20;2743046;-66
2022/07/20 01:24:13;;;;;;;;;6.00;5.50;;;;;17.91;63.03;99990.19;6287473;20;2741943;-65
2022/07/20 01:26:44;;;;;;;;;8.00;6.00;;;;;18.37;60.96;99991.53;6284468;20;2747207;-66
2022/07/20 01:29:14;;;;;;;;;6.20;6.20;;;;;18.57;60.23;99993.34;6311028;20;2738216;-66
2022/07/20 01:31:46;;;;;;;;;5.29;4.86;;;;;18.51;60.03;99990.28;6360093;20;3457516;-66
2022/07/20 01:34:16;;;;;;;;;6.00;6.00;;;;;18.33;60.55;99990.09;6338447;20;2746157;-68
2022/07/20 01:36:45;;;;;;;;;6.60;6.00;;;;;18.29;60.46;99989.50;6307816;20;2738918;-68
2022/07/20 01:39:15;;;;;;;;;5.00;5.00;;;;;17.82;62.09;99989.09;6346739;20;2734651;-68
2022/07/20 01:41:47;;;;;;;;;5.60;5.60;;;;;17.71;63.13;99992.72;6308146;20;2737921;-69
2022/07/20 01:44:17;;;;;;;;;6.00;6.00;;;;;17.64;63.39;99993.38;6341427;20;2746108;-62
2022/07/20 01:46:50;;;;;;;;;6.71;6.71;;;;;17.98;62.28;99986.78;6355603;20;3450232;-61
2022/07/20 01:49:20;;;;;;;;;7.60;6.00;;;;;17.89;61.93;99990.28;6334634;20;2739877;-62
2022/07/20 01:51:51;;;;;;;;;5.20;5.20;;;;;17.63;63.25;99995.25;6343318;20;2739895;-60
2022/07/20 01:54:19;;;;;;;;;7.00;5.00;;;;;17.55;63.61;99993.19;6318820;20;2727395;-61
2022/07/20 01:56:48;;;;;;;;;6.20;6.20;;;;;17.73;62.33;99989.88;6321619;20;2742984;-61
2022/07/20 01:59:16;;;;;;;;;6.00;6.00;;;;;17.51;63.54;99990.88;6315570;20;2735897;-58
2022/07/20 02:01:44;;;;;;;;;7.00;7.00;;;;;18.03;61.52;99980.94;6283808;20;2728407;-60
2022/07/20 02:04:12;;;;;;;;;6.50;6.50;;;;;17.47;63.68;99981.25;6286600;20;2736723;-61
2022/07/20 02:06:43;;;;;;;;;7.00;6.57;;;;;17.38;64.40;99990.19;6319666;20;3453352;-57
2022/07/20 02:09:13;;;;;;;;;7.80;6.20;;;;;17.20;64.41;99988.06;6335880;20;2744067;-60
2022/07/20 02:11:42;;;;;;;;;5.00;5.00;;;;;17.42;63.59;99983.50;6332605;20;2726288;-60
2022/07/20 02:14:12;;;;;;;;;6.40;5.40;;;;;17.52;63.01;99984.44;6336082;20;2728424;-58
2022/07/20 02:16:41;;;;;;;;;7.00;7.00;;;;;17.42;63.47;99991.66;6332167;20;2734662;-57
2022/07/20 02:19:11;;;;;;;;;7.80;7.60;;;;;17.29;63.61;99991.84;6335080;20;2737827;-57
2022/07/20 02:21:40;;;;;;;;;6.20;5.80;;;;;17.37;63.33;99993.91;6334084;20;2743015;-57
2022/07/20 02:24:10;;;;;;;;;8.20;8.20;;;;;17.52;63.12;99990.72;6337953;20;2758738;-58
2022/07/20 02:26:40;;;;;;;;;7.40;6.00;;;;;17.58;62.80;99993.91;6308741;20;2737964;-60
2022/07/20 02:29:09;;;;;;;;;7.00;7.00;;;;;17.76;62.05;99995.03;6341057;20;2742034;-59
2022/07/20 02:31:37;;;;;;;;;8.00;8.00;;;;;17.90;61.97;100002.88;6315206;20;2747161;-60
2022/07/20 02:34:05;;;;;;;;;7.00;7.00;;;;;17.98;61.60;100004.91;6288042;20;2734636;-60
2022/07/20 02:36:32;;;;;;;;;6.00;6.00;;;;;17.95;61.95;99999.75;6283403;20;2740880;-60
2022/07/20 02:39:03;;;;;;;;;9.00;7.00;;;;;17.85;62.23;99998.84;6310897;20;2754508;-62
2022/07/20 02:41:34;;;;;;;;;6.60;6.00;;;;;17.60;63.69;100000.94;6338759;20;2733690;-61
2022/07/20 02:44:03;;;;;;;;;9.67;8.33;;;;;17.44;64.03;100001.38;6312745;20;2768145;-60
2022/07/20 02:46:33;;;;;;;;;7.40;6.20;;;;;17.49;64.00;100009.16;6335616;20;2742964;-60
2022/07/20 02:49:02;;;;;;;;;6.60;5.20;;;;;17.81;62.67;100010.97;6336222;20;2745063;-60
2022/07/20 02:51:30;;;;;;;;;4.50;4.50;;;;;17.95;62.13;100013.34;6311262;20;2741002;-60
2022/07/20 02:54:00;;;;;;;;;9.00;7.00;;;;;17.66;62.74;100004.97;6308315;20;2739916;-61
2022/07/20 02:56:27;;;;;;;;;9.00;8.00;;;;;16.92;65.76;100004.91;6310048;20;2762214;-60
2022/07/20 02:58:57;;;;;;;;;8.00;8.00;;;;;16.96;65.97;100007.25;6306890;20;2756691;-60
2022/07/20 03:01:25;;;;;;;;;8.50;8.50;;;;;16.81;66.77;100001.25;6277915;20;2746239;-61
2022/07/20 03:03:53;;;;;;;;;9.50;7.00;;;;;17.22;65.26;100004.19;6287763;20;2737778;-61
2022/07/20 03:06:22;;;;;;;;;8.40;8.40;;;;;17.19;65.64;100002.59;6304054;20;2744051;-61
2022/07/20 03:08:50;;;;;;;;;7.00;4.50;;;;;17.21;65.54;100002.47;6283642;20;2747190;-60
2022/07/20 03:11:22;;;;;;;;;11.40;7.40;;;;;17.33;65.14;100005.03;6322795;20;2477381;-60
2022/07/20 03:13:52;;;;;;;;;9.00;7.60;;;;;17.68;63.29;100008.44;6338422;20;2749381;-60
2022/07/20 03:16:20;;;;;;;;;12.00;9.00;;;;;17.02;66.36;100005.88;6280339;20;2765926;-60
2022/07/20 03:18:48;;;;;;;;;6.50;6.50;;;;;17.00;65.82;100003.28;6285419;20;2744146;-61
2022/07/20 03:21:16;;;;;;;;;6.50;6.50;;;;;17.10;66.47;100006.94;6283053;20;2746197;-60
2022/07/20 03:23:44;;;;;;;;;8.00;8.00;;;;;17.22;65.47;100002.38;6279274;20;2748294;-60
2022/07/20 03:26:15;;;;;;;;;10.00;9.80;;;;;17.05;65.80;100005.63;6305374;20;2780489;-60
2022/07/20 03:28:43;;;;;;;;;9.00;8.00;;;;;17.37;64.62;100008.31;6282375;20;2750291;-60
2022/07/20 03:31:12;;;;;;;;;11.60;8.80;;;;;17.27;64.38;100008.25;6301015;20;2782568;-60
2022/07/20 03:33:40;;;;;;;;;15.50;9.00;;;;;17.21;64.95;100011.47;6286940;20;2777384;-61
2022/07/20 03:36:09;;;;;;;;;9.00;8.00;;;;;17.27;64.09;100013.69;6280539;20;2735988;-61
2022/07/20 03:38:37;;;;;;;;;9.67;9.00;;;;;16.73;66.01;100014.53;6281529;20;2767956;-60
2022/07/20 03:41:09;;;;;;;;;6.00;6.00;;;;;17.15;64.38;100016.56;6311845;20;2746074;-60
2022/07/20 03:43:37;;;;;;;;;9.00;8.33;;;;;16.65;66.41;100030.56;6287008;20;2761715;-60
2022/07/20 03:46:07;;;;;;;;;9.00;7.80;;;;;16.92;65.04;100023.91;6340320;20;2744020;-61
2022/07/20 03:48:38;;;;;;;;;10.40;9.00;;;;;16.98;65.46;100029.69;6340845;20;2766940;-57
2022/07/20 03:51:06;;;;;;;;;6.00;6.00;;;;;16.88;66.62;100026.00;6287165;20;2744008;-60
2022/07/20 03:53:35;;;;;;;;;9.40;7.80;;;;;17.14;64.67;100026.56;6313944;20;2770124;-57
2022/07/20 03:56:12;;;;;;;;;10.00;8.50;;;;;17.37;63.89;100031.91;6280558;20;2759692;-58
2022/07/20 03:58:40;;;;;;;;;7.50;7.50;;;;;17.31;65.26;100039.56;6292099;20;2741956;-58
2022/07/20 04:01:09;;;;;;;;;9.80;9.80;;;;;17.39;65.38;100035.34;6305061;20;2787858;-57
2022/07/20 04:03:38;;;;;;;;;13.67;8.33;;;;;17.53;64.76;100044.03;6286381;20;2771516;-57
2022/07/20 04:06:07;;;;;;;;;11.00;9.00;;;;;17.67;64.27;100039.31;6314510;20;2769142;-58
2022/07/20 04:08:37;;;;;;;;;10.60;8.60;;;;;18.02;63.10;100041.72;6340457;20;2767959;-58
2022/07/20 04:11:05;;;;;;;;;10.33;9.33;;;;;18.07;62.79;100042.19;6284717;20;2782578;-58
2022/07/20 04:13:35;;;;;;;;;8.20;8.20;;;;;18.41;61.03;100040.06;6342445;20;2748199;-57
2022/07/20 04:16:05;;;;;;;;;10.80;9.00;;;;;18.18;62.90;100043.94;6339480;20;2773160;-58
2022/07/20 04:18:36;;;;;;;;;8.71;7.71;;;;;18.54;61.26;100047.16;6332331;20;3473194;-58
2022/07/20 04:21:06;;;;;;;;;10.20;10.00;;;;;18.59;61.41;100048.44;6339761;20;2786727;-58
2022/07/20 04:23:37;;;;;;;;;8.50;8.00;;;;;18.70;61.82;100050.22;6329740;20;2471153;-58
2022/07/20 04:26:06;;;;;;;;;9.33;8.67;;;;;18.92;61.24;100049.16;6313967;20;2757654;-58
2022/07/20 04:28:34;;;;;;;;;9.33;9.33;;;;;18.68;62.19;100052.19;6312823;20;2773173;-58
2022/07/20 04:31:02;;;;;;;;;8.00;8.00;;;;;18.79;61.36;100049.41;6313205;20;2745290;-58
2022/07/20 04:33:32;;;;;;;;;9.80;9.20;;;;;19.16;60.07;100050.63;6312519;20;2770190;-59
2022/07/20 04:36:01;;;;;;;;;8.00;8.00;;;;;19.17;59.71;100057.78;6309260;20;2749272;-60
2022/07/20 04:38:31;;;;;;;;;7.20;7.00;;;;;19.40;58.09;100059.25;6345008;20;2752452;-60
2022/07/20 04:41:00;;;;;;;;;8.80;8.80;;;;;19.32;58.83;100061.84;6338418;20;2749409;-60
2022/07/20 04:43:30;;;;;;;;;6.60;6.60;;;;;19.64;57.29;100061.59;6312818;20;2748295;-59
2022/07/20 04:45:59;;;;;;;;;8.20;8.20;;;;;19.55;58.03;100056.13;6334985;20;2749244;-60
2022/07/20 04:48:29;;;;;;;;;8.80;8.80;;;;;19.63;57.31;100059.00;6310974;20;2748340;-60
2022/07/20 04:50:59;;;;;;;;;8.20;7.80;;;;;19.81;56.16;100062.75;6340349;20;2741974;-60
2022/07/20 04:53:27;;;;;;;;;8.00;8.00;;;;;19.97;55.74;100061.31;6294477;20;2742126;-60
2022/07/20 04:55:55;;;;;;;;;5.50;5.00;;;;;20.05;55.60;100066.88;6284916;20;2726301;-60
2022/07/20 04:58:23;;;;;;;;;8.00;6.00;;;;;20.18;54.53;100067.44;6291008;20;2740876;-60
2022/07/20 05:00:59;;;;;;;;;9.00;7.60;;;;;20.21;55.92;100064.41;6299757;20;2743031;-60
2022/07/20 05:03:28;;;;;;;;;9.20;7.20;;;;;20.33;55.33;100067.84;6338996;20;2737878;-60
2022/07/20 05:05:58;;;;;;;;;7.40;7.40;;;;;20.69;53.86;100065.28;6311426;20;2752330;-59
2022/07/20 05:08:27;;;;;;;;;8.40;8.00;;;;;20.86;53.47;100064.50;6309177;20;2752755;-59
2022/07/20 05:10:57;;;;;;;;;8.00;6.40;;;;;20.96;53.19;100064.44;6303805;20;2750214;-60
2022/07/20 05:13:26;;;;;;;;;10.40;9.00;;;;;21.08;52.60;100071.41;6337130;20;2766034;-60
2022/07/20 05:15:56;;;;;;;;;8.00;8.00;;;;;21.27;52.05;100068.56;6309239;20;2754429;-60
2022/07/20 05:18:24;;;;;;;;;11.00;8.67;;;;;21.42;51.69;100066.16;6289446;20;2769006;-59
2022/07/20 05:20:53;;;;;;;;;9.00;9.00;;;;;21.63;50.98;100068.59;6315637;20;2760822;-59
2022/07/20 05:23:21;;;;;;;;;9.00;8.00;;;;;21.65;50.79;100072.03;6323951;20;2748228;-60
2022/07/20 05:25:51;;;;;;;;;8.00;8.00;;;;;22.02;50.67;100071.00;6311235;20;2748352;-61
2022/07/20 05:28:20;;;;;;;;;9.67;9.67;;;;;22.09;50.54;100074.81;6312488;20;2781496;-59
2022/07/20 05:30:50;;;;;;;;;10.00;10.00;;;;;22.49;49.52;100069.81;6314998;20;2794125;-61
2022/07/20 05:33:20;;;;;;;;;8.80;8.00;;;;;22.59;49.61;100073.25;6335213;20;2750267;-61
2022/07/20 05:35:50;;;;;;;;;12.80;8.80;;;;;22.57;49.43;100078.91;6308428;20;2775423;-61
2022/07/20 05:38:20;;;;;;;;;9.80;8.60;;;;;22.81;48.44;100077.34;6302484;20;2769236;-61
2022/07/20 05:40:50;;;;;;;;;9.00;9.00;;;;;22.92;48.12;100071.56;6309757;20;2764837;-61
2022/07/20 05:43:18;;;;;;;;;7.00;7.00;;;;;23.28;47.97;100078.75;6285836;20;2754835;-60
2022/07/20 05:45:48;;;;;;;;;8.00;7.00;;;;;23.12;47.72;100076.81;6339787;20;2744034;-61
2022/07/20 05:48:17;;;;;;;;;7.00;7.00;;;;;23.11;47.78;100080.56;6292986;20;2563820;-62
2022/07/20 05:50:46;;;;;;;;;7.40;7.40;;;;;23.63;46.49;100085.84;6337191;20;2752433;-61
2022/07/20 05:53:15;;;;;;;;;7.00;7.00;;;;;23.72;45.90;100089.47;6279542;20;2734754;-63
2022/07/20 05:55:46;;;;;;;;;9.20;7.00;;;;;23.69;45.53;100087.88;6338806;20;2753408;-64
2022/07/20 05:58:16;;;;;;;;;7.75;7.75;;;;;24.20;44.67;100090.53;6315611;20;2744011;-61
2022/07/20 06:00:45;;;;;;;;;6.60;6.40;;;;;23.90;44.66;100097.53;6311555;20;2733638;-61
2022/07/20 06:03:15;;;;;;;;;8.00;8.00;;;;;24.23;44.46;100098.41;6339059;20;2741922;-61
2022/07/20 06:05:44;;;;;;;;;7.67;7.00;;;;;24.44;42.84;100101.50;6279453;20;2748206;-62
2022/07/20 06:08:13;;;;;;;;;7.20;7.00;;;;;24.50;42.39;100111.78;6342122;20;2744029;-61
2022/07/20 06:10:43;;;;;;;;;6.00;6.00;;;;;24.23;42.50;100102.00;6307219;20;2728447;-61
2022/07/20 06:13:12;;;;;;;;;6.60;5.80;;;;;24.70;41.98;100112.25;6339818;20;2733643;-61
2022/07/20 06:15:41;;;;;;;;;10.00;9.00;;;;;25.16;40.96;100106.97;6279894;20;2771279;-61
2022/07/20 06:18:10;;;;;;;;;8.40;8.20;;;;;25.27;41.38;100113.09;6339377;20;2754422;-61
2022/07/20 06:20:40;;;;;;;;;9.40;7.40;;;;;25.21;40.92;100105.59;6307568;20;2731515;-61
2022/07/20 06:23:08;;;;;;;;;8.00;8.00;;;;;25.26;40.54;100112.25;6289931;20;2752364;-62
2022/07/20 06:25:37;;;;;;;;;6.00;6.00;;;;;25.27;40.98;100108.44;6313078;20;2740018;-58
2022/07/20 06:28:05;;;;;;;;;7.33;7.33;;;;;25.60;39.75;100106.38;6321668;20;2745044;-59
2022/07/20 06:30:34;;;;;;;;;8.33;7.33;;;;;25.87;39.63;100109.66;6312567;20;2747306;-59
2022/07/20 06:33:03;;;;;;;;;7.67;7.67;;;;;26.24;39.45;100116.25;6309758;20;2739890;-59
2022/07/20 06:35:31;;;;;;;;;8.00;8.00;;;;;26.43;38.51;100112.97;6311693;20;2750433;-60
2022/07/20 06:37:59;;;;;;;;;8.00;6.00;;;;;26.84;38.21;100114.47;6317119;20;2748173;-59
2022/07/20 06:40:28;;;;;;;;;8.00;7.00;;;;;26.69;37.72;100122.72;6314198;20;2754400;-59
2022/07/20 06:42:56;;;;;;;;;8.67;8.00;;;;;27.09;37.75;100115.03;6314811;20;2752369;-61
2022/07/20 06:45:26;;;;;;;;;9.80;8.40;;;;;27.68;35.99;100123.22;6337425;20;2769054;-62
2022/07/20 06:47:54;;;;;;;;;10.00;10.00;;;;;27.56;36.87;100124.78;6288550;20;2786763;-62
2022/07/20 06:50:23;;;;;;;;;9.00;7.67;;;;;28.03;35.55;100123.41;6312150;20;2743023;-62
2022/07/20 06:52:52;;;;;;;;;9.33;8.00;;;;;28.32;34.55;100119.63;6318834;20;2757598;-62
2022/07/20 06:55:20;;;;;;;;;11.67;7.67;;;;;28.47;34.94;100130.63;6310696;20;3479574;-63
2022/07/20 06:57:49;;;;;;;;;10.00;9.00;;;;;28.62;33.91;100122.22;6319453;20;2772214;-63
2022/07/20 07:00:17;;;;;;;;;9.33;8.00;;;;;28.98;33.32;100127.56;6317872;20;2753413;-58
2022/07/20 07:02:46;;;;;;;;;10.33;9.67;;;;;29.21;33.12;100132.84;6308538;20;3481667;-58
2022/07/20 07:05:15;;;;;;;;;14.67;12.33;;;;;29.34;33.79;100120.97;6313478;20;3515877;-61
2022/07/20 07:07:43;;;;;;;;;9.00;9.00;;;;;29.95;32.48;100126.50;6311863;20;2751761;-61
2022/07/20 07:10:12;;;;;;;;;11.00;9.00;;;;;30.09;32.01;100124.59;6310068;20;3489862;-61
2022/07/20 07:12:41;;;;;;;;;9.00;9.00;;;;;30.29;31.79;100124.66;6306557;20;2744204;-60
2022/07/20 07:15:10;;;;;;;;;10.67;8.67;;;;;29.60;32.06;100133.22;6312050;20;2769036;-60
2022/07/20 07:17:38;;;;;;;;;10.67;8.67;;;;;30.31;30.15;100127.22;6308486;20;2771123;-61
2022/07/20 07:20:08;;;;;;;;;11.33;9.00;;;;;30.63;30.08;100122.75;6324138;20;2770174;-61
2022/07/20 07:22:37;;;;;;;;;11.00;11.00;;;;;30.59;30.67;100121.44;6314692;20;3524248;-59
2022/07/20 07:25:07;;;;;;;;;9.67;9.67;;;;;30.47;30.75;100123.19;6282506;20;3495061;-59
2022/07/20 07:27:35;;;;;;;;;7.67;7.67;;;;;30.91;30.91;100125.25;6326364;20;2752336;-59
2022/07/20 07:30:06;;;;;;;;;11.67;8.67;;;;;31.73;29.89;100119.19;6324663;20;2762918;-60
2022/07/20 07:32:34;;;;;;;;;11.67;10.33;;;;;31.23;30.63;100122.63;6322050;20;2785072;-59
2022/07/20 07:35:04;;;;;;;;;10.67;7.67;;;;;31.53;30.37;100122.94;6313179;20;3487804;-59
2022/07/20 07:37:39;;;;;;;;;12.67;9.33;;;;;31.93;29.56;100122.75;6319150;20;2788786;-59
2022/07/20 07:40:09;;;;;;;;;10.33;10.33;;;;;31.74;29.85;100120.94;6314373;20;3505598;-60
2022/07/20 07:42:38;;;;;;;;;6.33;6.33;;;;;31.88;29.53;100119.75;6313096;20;2739907;-59
2022/07/20 07:45:08;;;;;;;;;9.67;9.67;;;;;32.23;29.19;100119.31;6322636;20;2766920;-59
2022/07/20 07:47:37;;;;;;;;;9.00;9.00;;;;;31.75;29.36;100123.47;6311364;20;2755503;-59
2022/07/20 07:50:06;;;;;;;;;13.00;10.00;;;;;31.09;30.03;100113.47;6316296;20;2786893;-60
2022/07/20 07:52:35;;;;;;;;;11.00;11.00;;;;;31.43;29.68;100108.69;6320868;20;2792175;-59
2022/07/20 07:55:22;;;;;;;;;11.33;7.33;;;;;32.36;29.15;100120.09;6315951;20;3491896;-60
2022/07/20 07:57:51;;;;;;;;;9.67;8.33;;;;;32.80;28.39;100111.78;6326824;20;2762927;-64
2022/07/20 08:00:19;;;;;;;;;9.33;9.00;;;;;33.31;26.81;100123.66;6320006;20;2757569;-60
2022/07/20 08:02:48;;;;;;;;;9.67;7.00;;;;;33.20;27.03;100119.72;6324444;20;2760836;-60
2022/07/20 08:05:17;;;;;;;;;7.00;6.67;;;;;33.64;26.63;100126.88;6314899;20;2744236;-64
2022/07/20 08:07:45;;;;;;;;;6.33;6.33;;;;;33.78;25.81;100122.00;6319687;20;2746280;-65
2022/07/20 08:10:14;;;;;;;;;5.67;5.00;;;;;33.73;26.79;100119.06;6320747;20;2738826;-64
2022/07/20 08:12:44;;;;;;;;;7.00;6.00;;;;;34.08;25.74;100121.16;6315593;20;2737848;-64
2022/07/20 08:15:12;;;;;;;;;5.00;4.33;;;;;34.38;25.02;100109.91;6313598;20;2741944;-61
2022/07/20 08:17:47;;;;;;;;;6.33;6.33;;;;;33.91;24.51;100109.78;6316450;20;2746312;-59
2022/07/20 08:20:21;;;;;;;;;7.67;6.67;;;;;34.08;25.33;100112.78;6318275;20;2752335;-61
2022/07/20 08:22:52;;;;;;;;;7.67;6.33;;;;;34.35;24.95;100112.34;6317106;20;2740934;-63
2022/07/20 08:25:22;;;;;;;;;5.67;5.00;;;;;34.49;24.78;100113.81;6317170;20;2744147;-63
2022/07/20 08:27:50;;;;;;;;;6.67;6.00;;;;;34.61;23.61;100113.84;6319343;20;2748318;-63
2022/07/20 08:30:20;;;;;;;;;7.00;6.00;;;;;34.17;24.96;100107.72;6317449;20;2748177;-62
2022/07/20 08:33:10;;;;;;;;;6.67;6.00;;;;;34.72;24.57;100108.25;6317955;20;2732542;-63
2022/07/20 08:35:39;;;;;;;;;7.33;6.33;;;;;33.42;26.39;100095.88;6326076;20;2748274;-62
2022/07/20 08:38:09;;;;;;;;;8.67;6.00;;;;;33.51;25.87;100098.34;6319792;20;2735265;-62
2022/07/20 08:40:38;;;;;;;;;6.67;6.67;;;;;33.64;25.83;100098.19;6319280;20;2750336;-62
2022/07/20 08:43:07;;;;;;;;;8.00;6.67;;;;;33.12;25.90;100100.53;6318660;20;2746162;-62
2022/07/20 08:45:36;;;;;;;;;6.33;5.33;;;;;33.71;24.45;100112.03;6318816;20;2742978;-63
2022/07/20 08:48:11;;;;;;;;;6.33;5.00;;;;;33.47;25.84;100092.41;6320751;20;2735710;-62
2022/07/20 08:50:39;;;;;;;;;5.67;5.67;;;;;33.75;25.20;100105.72;6315933;20;2748178;-63
2022/07/20 08:53:10;;;;;;;;;5.00;4.00;;;;;34.12;23.90;100097.25;6359688;20;3454416;-65
2022/07/20 08:55:39;;;;;;;;;4.00;4.00;;;;;34.28;24.04;100102.16;6318137;20;2733755;-62
2022/07/20 08:58:11;;;;;;;;;6.00;6.00;;;;;34.14;24.59;100095.09;6319989;20;2737773;-64
2022/07/20 09:00:39;;;;;;;;;5.67;5.67;;;;;34.39;24.18;100099.59;6317095;20;2736701;-63
2022/07/20 09:03:10;;;;;;;;;7.33;6.00;;;;;34.94;24.19;100090.88;6321228;20;2746178;-62
2022/07/20 09:05:42;;;;;;;;;4.00;4.00;;;;;34.30;24.31;100097.19;6317754;20;2732706;-65
2022/07/20 09:08:17;;;;;;;;;4.00;4.00;;;;;35.05;22.81;100090.03;6317939;20;2736790;-66
2022/07/20 09:10:47;;;;;;;;;3.67;3.67;;;;;35.45;21.67;100092.03;6315552;20;2740049;-66
2022/07/20 09:13:19;;;;;;;;;3.00;3.00;;;;;34.35;23.53;100084.47;6316015;20;2735700;-66
2022/07/20 09:15:56;;;;;;;;;5.00;4.00;;;;;35.14;22.53;100084.94;6312926;20;2740056;-65
2022/07/20 09:18:33;;;;;;;;;6.00;4.00;;;;;34.99;22.33;100081.78;6318958;20;2730494;-65
2022/07/20 09:21:08;;;;;;;;;5.00;4.00;;;;;34.57;23.13;100080.00;6317924;20;2746148;-55
2022/07/20 09:23:42;;;;;;;;;6.33;5.00;;;;;34.87;23.25;100073.44;6316656;20;2746086;-68
2022/07/20 09:26:10;;;;;;;;;7.67;5.67;;;;;34.97;22.74;100079.25;6327284;20;2728405;-60
2022/07/20 09:28:53;;;;;;;;;5.33;5.33;;;;;35.25;23.88;100069.25;6323448;20;2735743;-67
2022/07/20 09:31:38;;;;;;;;;4.00;4.00;;;;;35.47;23.21;100070.28;6313562;20;2742952;-65
2022/07/20 09:34:15;;;;;;;;;7.00;7.00;;;;;35.62;23.02;100075.34;6317216;20;2744028;-62
2022/07/20 09:36:47;;;;;;;;;3.00;3.00;;;;;35.45;22.10;100069.69;6316917;20;2730664;-64
2022/07/20 09:39:19;;;;;;;;;5.33;4.00;;;;;34.72;22.82;100072.00;6316370;20;2739872;-65
2022/07/20 09:41:56;;;;;;;;;5.00;5.00;;;;;35.58;22.14;100074.16;6316083;20;2741943;-65
2022/07/20 09:44:30;;;;;;;;;5.00;5.00;;;;;35.16;22.59;100066.00;6314924;20;2748423;-69
2022/07/20 09:46:59;;;;;;;;;5.00;5.00;;;;;35.42;22.79;100063.72;6312604;20;2742001;-68
2022/07/20 09:49:34;;;;;;;;;3.67;3.67;;;;;35.94;22.54;100061.69;6317143;20;2737820;-62
2022/07/20 09:52:06;;;;;;;;;5.33;5.00;;;;;35.43;22.02;100057.06;6319101;20;2734611;-66
2022/07/20 09:54:54;;;;;;;;;4.33;4.33;;;;;35.03;22.21;100061.53;6317252;20;2736750;-64
2022/07/20 09:57:24;;;;;;;;;4.00;4.00;;;;;34.96;22.60;100049.63;6315045;20;2752338;-62
2022/07/20 09:59:55;;;;;;;;;3.33;3.33;;;;;35.95;21.82;100055.00;6319910;20;2746084;-63
2022/07/20 10:02:25;;;;;;;;;6.00;3.33;;;;;36.13;21.75;100056.72;6317525;20;2744010;-62
2022/07/20 10:04:55;;;;;;;;;5.00;5.00;;;;;35.81;21.79;100045.22;6314697;20;2739981;-63
2022/07/20 10:07:24;;;;;;;;;4.33;4.33;;;;;35.61;21.45;100046.56;6317604;20;2730565;-64
2022/07/20 10:09:52;;;;;;;;;6.00;4.00;;;;;35.86;21.56;100045.31;6313402;20;2729425;-61
2022/07/20 10:12:21;;;;;;;;;6.00;5.00;;;;;36.22;20.94;100041.22;6314251;20;2737762;-61
2022/07/20 10:14:51;;;;;;;;;4.67;3.00;;;;;36.45;21.41;100040.19;6316152;20;2755449;-62
2022/07/20 10:17:20;;;;;;;;;5.00;3.33;;;;;35.75;21.48;100035.91;6310452;20;2744015;-63
2022/07/20 10:19:48;;;;;;;;;5.00;5.00;;;;;36.11;20.96;100039.34;6313983;20;2735684;-62
2022/07/20 10:22:17;;;;;;;;;4.67;4.67;;;;;36.07;20.97;100028.94;6318686;20;2741982;-61
2022/07/20 10:24:47;;;;;;;;;5.67;5.00;;;;;36.16;21.33;100030.22;6316158;20;2744144;-61
2022/07/20 10:27:27;;;;;;;;;5.67;4.00;;;;;36.60;21.15;100030.34;6314192;20;2736807;-61
2022/07/20 10:29:57;;;;;;;;;5.00;4.00;;;;;36.52;20.98;100030.75;6312786;20;2731651;-64
2022/07/20 10:32:29;;;;;;;;;5.33;4.00;;;;;36.17;20.96;100017.91;6315582;20;2730615;-64
2022/07/20 10:35:27;;;;;;;;;5.00;5.00;;;;;36.22;21.02;100012.41;6315007;20;2748167;-64
2022/07/20 10:37:58;;;;;;;;;7.33;4.00;;;;;36.69;20.75;100014.81;6313914;20;2747292;-64
2022/07/20 10:40:30;;;;;;;;;4.33;4.00;;;;;36.79;20.55;100009.34;6313985;20;2737846;-67
2022/07/20 10:43:14;;;;;;;;;3.33;3.33;;;;;36.61;20.44;100004.91;6314627;20;2748194;-66
2022/07/20 10:45:45;;;;;;;;;4.67;4.67;;;;;36.55;20.85;99999.47;6318375;20;2737753;-64
2022/07/20 10:48:14;;;;;;;;;4.00;4.00;;;;;36.11;21.32;99999.38;6313825;20;2762752;-66
2022/07/20 10:50:55;;;;;;;;;6.67;5.00;;;;;36.91;20.74;99998.84;6316475;20;2737759;-64
2022/07/20 10:53:23;;;;;;;;;3.67;3.67;;;;;36.04;20.83;100002.28;6313124;20;2741969;-61
2022/07/20 10:55:58;;;;;;;;;4.00;4.00;;;;;36.76;19.95;99995.88;6321119;20;2742108;-61
2022/07/20 10:58:42;;;;;;;;;3.67;3.67;;;;;37.74;19.49;100001.50;6321839;20;2746152;-61
2022/07/20 11:01:14;;;;;;;;;6.67;4.00;;;;;37.27;19.51;99993.72;6321775;20;2743038;-61
2022/07/20 11:03:45;;;;;;;;;3.00;2.00;;;;;37.25;19.77;99989.50;6321788;20;2752329;-62
2022/07/20 11:06:21;;;;;;;;;5.00;2.33;;;;;38.11;18.96;99989.50;6320083;20;2752442;-61
2022/07/20 11:08:57;;;;;;;;;4.00;4.00;;;;;37.95;19.20;99984.88;6321955;20;2747151;-61
2022/07/20 11:11:34;;;;;;;;;2.00;2.00;;;;;37.90;19.09;99987.63;6319927;20;2750298;-62
2022/07/20 11:14:06;;;;;;;;;4.33;4.33;;;;;36.37;20.38;99976.28;6319175;20;2741942;-63
2022/07/20 11:16:36;;;;;;;;;3.00;3.00;;;;;36.58;19.87;99974.66;6326371;20;2754440;-61
2022/07/20 11:19:07;;;;;;;;;2.00;2.00;;;;;37.13;19.67;99984.06;6323423;20;2737793;-61
2022/07/20 11:21:44;;;;;;;;;4.00;4.00;;;;;36.67;19.96;99966.66;6319612;20;2738824;-61
2022/07/20 11:24:26;;;;;;;;;11.00;5.00;;;;;36.86;20.32;99967.16;6318406;20;2758601;-62
2022/07/20 11:26:56;;;;;;;;;5.00;3.67;;;;;36.31;20.44;99968.94;6319876;20;2739993;-59